Time;durP1;ratioP1;P1;durP2;ratioP2;P2;SDS_P1;SDS_P2;PMS_P1;PMS_P2;Temp;Humidity;BMP_temperature;BMP_pressure;BME280_temperature;BME280_humidity;BME280_pressure;Samples;Min_cycle;Max_cycle;Signal;HPM_P1;HPM_P2
2023/09/03 00:00:39;;;;;;;;;;;25.80;71.30;;;;;;5024916;28;42993;-78
2023/09/03 00:03:05;;;;;;;;;;;25.80;69.70;;;;;;5025409;28;43047;-85
2023/09/03 00:05:30;;;;;;;;;;;25.90;70.90;;;;;;5024816;28;43008;-85
2023/09/03 00:07:56;;;;;;;;;;;25.40;71.40;;;;;;5025207;28;42946;-85
2023/09/03 00:10:21;;;;;;;;;;;25.50;72.30;;;;;;5025114;28;43179;-84
2023/09/03 00:12:47;;;;;;;;;;;25.50;72.00;;;;;;5025043;28;42897;-80
2023/09/03 00:15:12;;;;;;;;;;;25.40;71.90;;;;;;5024987;28;43503;-77
2023/09/03 00:17:38;;;;;;;;;;;25.40;72.80;;;;;;5024615;28;42913;-84
2023/09/03 00:20:04;;;;;;;;;;;25.40;72.10;;;;;;5024654;28;42961;-85
2023/09/03 00:22:30;;;;;;;;;;;25.30;71.70;;;;;;5024890;28;42958;-86
2023/09/03 00:24:55;;;;;;;;;;;25.40;72.60;;;;;;5024766;28;43012;-85
2023/09/03 00:27:21;;;;;;;;;;;25.20;72.30;;;;;;5024849;28;42966;-78
2023/09/03 00:29:46;;;;;;;;;;;25.20;72.10;;;;;;5025032;28;43473;-86
2023/09/03 00:32:12;;;;;;;;;;;25.40;72.10;;;;;;5025006;28;42871;-77
2023/09/03 00:34:37;;;;;;;;;;;25.40;72.00;;;;;;5024875;28;42928;-78
2023/09/03 00:37:03;;;;;;;;;;;25.40;71.80;;;;;;5024629;28;42965;-77
2023/09/03 00:39:28;;;;;;;;;;;25.50;72.20;;;;;;5024497;28;43008;-85
2023/09/03 00:41:54;;;;;;;;;;;25.50;72.10;;;;;;5024535;28;42952;-85
2023/09/03 00:44:19;;;;;;;;;;;25.30;72.10;;;;;;5024616;28;43062;-80
2023/09/03 00:46:45;;;;;;;;;;;25.40;72.20;;;;;;5024722;28;43001;-86
2023/09/03 00:49:11;;;;;;;;;;;25.30;72.00;;;;;;5023787;28;42925;-86
2023/09/03 00:51:38;;;;;;;;;;;25.40;72.10;;;;;;5024094;28;43408;-77
2023/09/03 00:54:03;;;;;;;;;;;25.60;72.20;;;;;;5024093;28;42843;-84
2023/09/03 00:56:29;;;;;;;;;;;25.30;71.40;;;;;;5024333;28;42808;-86
2023/09/03 00:58:55;;;;;;;;;;;25.40;71.90;;;;;;5024503;28;43222;-85
2023/09/03 01:01:21;;;;;;;;;;;25.60;71.80;;;;;;5023580;28;43006;-81
2023/09/03 01:03:47;;;;;;;;;;;25.30;71.60;;;;;;5023904;28;43067;-84
2023/09/03 01:06:13;;;;;;;;;;;25.30;71.50;;;;;;5022585;28;43033;-86
2023/09/03 01:08:39;;;;;;;;;;;25.40;71.30;;;;;;5023558;28;43008;-80
2023/09/03 01:11:19;;;;;;;;;;;25.10;71.70;;;;;;5023549;28;43529;-84
2023/09/03 01:13:45;;;;;;;;;;;25.40;69.90;;;;;;5023670;28;43475;-86
2023/09/03 01:16:18;;;;;;;;;;;25.10;72.00;;;;;;5024217;28;43045;-86
2023/09/03 01:18:44;;;;;;;;;;;25.40;70.00;;;;;;5023976;28;42970;-85
2023/09/03 01:21:28;;;;;;;;;;;25.30;72.20;;;;;;5024257;28;42939;-85
2023/09/03 01:24:06;;;;;;;;;;;25.20;69.90;;;;;;5023568;28;42970;-85
2023/09/03 01:26:34;;;;;;;;;;;25.40;70.00;;;;;;5024174;28;42922;-83
2023/09/03 01:29:00;;;;;;;;;;;25.10;69.80;;;;;;5023940;28;43750;-86
2023/09/03 01:31:25;;;;;;;;;;;25.20;71.90;;;;;;5024524;28;42922;-85
2023/09/03 01:33:51;;;;;;;;;;;25.10;72.50;;;;;;5024006;28;43054;-86
2023/09/03 01:36:18;;;;;;;;;;;25.20;72.40;;;;;;5024087;28;42940;-81
2023/09/03 01:38:43;;;;;;;;;;;24.80;72.30;;;;;;5023714;28;43047;-77
2023/09/03 01:41:09;;;;;;;;;;;25.10;71.70;;;;;;5024272;28;42837;-79
2023/09/03 01:43:34;;;;;;;;;;;25.10;72.20;;;;;;5024240;28;42938;-77
2023/09/03 01:46:12;;;;;;;;;;;25.20;72.40;;;;;;5024013;28;42807;-84
2023/09/03 01:49:04;;;;;;;;;;;25.10;70.60;;;;;;5024422;28;42919;-86
2023/09/03 01:51:45;;;;;;;;;;;25.00;70.00;;;;;;5026868;28;43055;-83
2023/09/03 01:54:13;;;;;;;;;;;25.20;70.20;;;;;;5027240;28;42983;-84
2023/09/03 01:56:42;;;;;;;;;;;25.30;70.20;;;;;;5026984;28;42922;-86
2023/09/03 01:59:18;;;;;;;;;;;25.10;72.00;;;;;;5025667;28;42918;-79
2023/09/03 02:01:44;;;;;;;;;;;25.30;70.00;;;;;;5009690;28;43072;-84
2023/09/03 02:04:09;;;;;;;;;;;25.20;72.30;;;;;;5007168;28;43141;-85
2023/09/03 02:06:34;;;;;;;;;;;25.10;72.00;;;;;;5006310;28;42963;-85
2023/09/03 02:09:00;;;;;;;;;;;25.10;71.40;;;;;;5006520;28;43170;-83
2023/09/03 02:11:25;;;;;;;;;;;25.10;71.80;;;;;;5006684;28;42949;-85
2023/09/03 02:13:51;;;;;;;;;;;25.10;71.20;;;;;;5006795;28;42879;-78
2023/09/03 02:16:16;;;;;;;;;;;25.10;72.00;;;;;;5007093;28;43216;-85
2023/09/03 02:18:42;;;;;;;;;;;25.20;71.30;;;;;;5006997;28;42868;-86
2023/09/03 02:21:08;;;;;;;;;;;25.00;71.10;;;;;;5006602;28;43030;-86
2023/09/03 02:23:33;;;;;;;;;;;25.20;71.80;;;;;;5006972;28;43528;-84
2023/09/03 02:26:00;;;;;;;;;;;25.00;71.80;;;;;;5006441;28;43073;-77
2023/09/03 02:28:26;;;;;;;;;;;24.90;71.50;;;;;;5006716;28;43852;-77
2023/09/03 02:30:51;;;;;;;;;;;25.10;71.60;;;;;;5007178;28;42959;-85
2023/09/03 02:33:17;;;;;;;;;;;25.00;71.50;;;;;;5006653;28;43659;-77
2023/09/03 02:35:42;;;;;;;;;;;25.00;71.80;;;;;;5007423;28;42995;-86
2023/09/03 02:38:08;;;;;;;;;;;25.20;72.30;;;;;;5006538;28;42949;-83
2023/09/03 02:40:34;;;;;;;;;;;24.90;71.80;;;;;;5006322;28;43010;-78
2023/09/03 02:42:59;;;;;;;;;;;25.00;72.00;;;;;;5005936;28;42871;-83
2023/09/03 02:45:25;;;;;;;;;;;24.90;72.50;;;;;;5006619;28;43017;-78
2023/09/03 02:47:50;;;;;;;;;;;24.90;71.90;;;;;;5006374;28;42875;-84
2023/09/03 02:50:16;;;;;;;;;;;24.80;71.80;;;;;;5006830;28;42836;-85
2023/09/03 02:52:41;;;;;;;;;;;24.50;72.20;;;;;;5006278;28;43645;-86
2023/09/03 02:55:07;;;;;;;;;;;24.70;71.90;;;;;;5005546;28;42893;-85
2023/09/03 02:57:33;;;;;;;;;;;25.00;71.70;;;;;;5006451;28;42845;-79
2023/09/03 02:59:58;;;;;;;;;;;24.80;71.50;;;;;;5006117;28;43138;-77
2023/09/03 03:02:24;;;;;;;;;;;25.00;71.00;;;;;;5006365;28;43957;-84
2023/09/03 03:04:49;;;;;;;;;;;24.90;71.50;;;;;;5005953;28;42770;-79
2023/09/03 03:07:15;;;;;;;;;;;24.90;71.60;;;;;;5006218;28;42962;-86
2023/09/03 03:09:40;;;;;;;;;;;24.90;71.70;;;;;;5005863;28;42954;-85
2023/09/03 03:12:06;;;;;;;;;;;24.80;71.70;;;;;;5007428;28;42996;-84
2023/09/03 03:14:31;;;;;;;;;;;24.80;71.50;;;;;;5025668;28;43507;-84
2023/09/03 03:16:57;;;;;;;;;;;24.70;71.80;;;;;;5025709;28;43584;-80
2023/09/03 03:19:22;;;;;;;;;;;24.90;72.30;;;;;;5026019;28;43093;-82
2023/09/03 03:21:48;;;;;;;;;;;24.90;71.60;;;;;;5025959;28;42990;-84
2023/09/03 03:24:13;;;;;;;;;;;24.90;71.60;;;;;;5024624;28;42846;-86
2023/09/03 03:26:39;;;;;;;;;;;24.90;71.30;;;;;;5023608;28;43230;-80
2023/09/03 03:29:07;;;;;;;;;;;24.80;71.30;;;;;;5024426;28;43122;-78
2023/09/03 03:31:34;;;;;;;;;;;24.80;71.60;;;;;;5023078;28;43381;-78
2023/09/03 03:33:59;;;;;;;;;;;24.80;71.60;;;;;;5025879;28;42862;-81
2023/09/03 03:36:25;;;;;;;;;;;24.80;71.60;;;;;;5026091;28;42943;-83
2023/09/03 03:38:50;;;;;;;;;;;24.70;71.50;;;;;;5025718;28;42891;-78
2023/09/03 03:41:17;;;;;;;;;;;24.70;71.60;;;;;;5024414;28;43676;-85
2023/09/03 03:43:44;;;;;;;;;;;24.60;71.50;;;;;;5024406;28;43245;-85
2023/09/03 03:46:10;;;;;;;;;;;24.80;71.40;;;;;;5024790;28;43269;-85
2023/09/03 03:48:35;;;;;;;;;;;24.70;71.30;;;;;;5025086;28;42990;-83
2023/09/03 03:51:01;;;;;;;;;;;24.70;70.80;;;;;;5025290;28;43087;-79
2023/09/03 03:53:27;;;;;;;;;;;24.70;71.10;;;;;;5025319;28;42941;-77
2023/09/03 03:56:11;;;;;;;;;;;24.60;71.30;;;;;;5024647;28;43492;-84
2023/09/03 03:58:43;;;;;;;;;;;24.90;69.10;;;;;;5024840;28;42902;-84
2023/09/03 04:01:18;;;;;;;;;;;24.80;72.00;;;;;;5025010;28;43718;-87
2023/09/03 04:03:44;;;;;;;;;;;24.70;69.10;;;;;;5024337;28;42920;-84
2023/09/03 04:06:09;;;;;;;;;;;24.70;71.40;;;;;;5015547;28;42953;-80
2023/09/03 04:08:36;;;;;;;;;;;24.90;71.70;;;;;;5022942;28;43033;-79
2023/09/03 04:11:05;;;;;;;;;;;24.80;71.60;;;;;;5023387;28;43695;-79
2023/09/03 04:13:30;;;;;;;;;;;24.60;72.00;;;;;;5024298;28;42988;-83
2023/09/03 04:15:57;;;;;;;;;;;24.60;71.90;;;;;;5021184;28;43435;-83
2023/09/03 04:18:23;;;;;;;;;;;24.60;72.10;;;;;;5024670;28;42877;-84
2023/09/03 04:20:55;;;;;;;;;;;24.70;72.10;;;;;;5023832;28;43343;-83
2023/09/03 04:23:20;;;;;;;;;;;24.40;69.60;;;;;;5024317;28;42867;-82
2023/09/03 04:25:46;;;;;;;;;;;24.50;72.00;;;;;;5022019;28;43542;-83
2023/09/03 04:28:12;;;;;;;;;;;24.60;71.90;;;;;;5024676;28;42973;-80
2023/09/03 04:30:39;;;;;;;;;;;24.70;72.10;;;;;;5020598;28;43412;-82
2023/09/03 04:33:06;;;;;;;;;;;24.60;72.10;;;;;;5023129;28;42958;-80
2023/09/03 04:35:31;;;;;;;;;;;24.50;72.00;;;;;;5020990;28;43454;-81
2023/09/03 04:37:57;;;;;;;;;;;24.50;72.00;;;;;;5024145;28;42984;-82
2023/09/03 04:40:24;;;;;;;;;;;24.60;71.60;;;;;;5020906;28;43034;-82
2023/09/03 04:42:49;;;;;;;;;;;24.60;71.50;;;;;;5023743;28;42883;-79
2023/09/03 04:45:15;;;;;;;;;;;24.40;72.10;;;;;;5023866;28;42902;-82
2023/09/03 04:47:41;;;;;;;;;;;24.60;72.10;;;;;;5023445;28;42950;-80
2023/09/03 04:50:09;;;;;;;;;;;24.40;72.30;;;;;;5022827;28;43597;-84
2023/09/03 04:52:34;;;;;;;;;;;24.50;71.90;;;;;;5022968;28;42859;-83
2023/09/03 04:55:00;;;;;;;;;;;24.40;72.80;;;;;;5023118;28;42965;-82
2023/09/03 04:57:25;;;;;;;;;;;24.40;72.00;;;;;;5023276;28;43018;-80
2023/09/03 04:59:51;;;;;;;;;;;24.30;71.80;;;;;;5021805;28;44115;-83
2023/09/03 05:02:17;;;;;;;;;;;24.50;72.60;;;;;;5022534;28;43064;-84
2023/09/03 05:04:42;;;;;;;;;;;24.40;72.40;;;;;;5023117;28;43783;-83
2023/09/03 05:07:08;;;;;;;;;;;24.60;71.80;;;;;;5021008;28;43032;-83
2023/09/03 05:09:33;;;;;;;;;;;24.60;72.30;;;;;;5022606;28;43599;-80
2023/09/03 05:11:59;;;;;;;;;;;24.60;72.20;;;;;;5023342;28;43015;-82
2023/09/03 05:14:24;;;;;;;;;;;24.40;72.00;;;;;;5023159;28;42970;-83
2023/09/03 05:16:50;;;;;;;;;;;24.50;71.90;;;;;;5024132;28;43124;-80
2023/09/03 05:19:15;;;;;;;;;;;24.50;71.20;;;;;;5023653;28;42891;-79
2023/09/03 05:21:41;;;;;;;;;;;24.50;72.00;;;;;;5021810;28;42997;-82
2023/09/03 05:24:07;;;;;;;;;;;24.60;71.50;;;;;;5022925;28;44515;-81
2023/09/03 05:26:33;;;;;;;;;;;24.60;71.60;;;;;;5023504;28;42997;-83
2023/09/03 05:28:59;;;;;;;;;;;24.50;71.60;;;;;;5024233;28;43022;-82
2023/09/03 05:31:24;;;;;;;;;;;24.70;71.40;;;;;;5023176;28;43582;-79
2023/09/03 05:33:50;;;;;;;;;;;24.70;71.30;;;;;;5023980;28;43582;-81
2023/09/03 05:36:15;;;;;;;;;;;24.60;71.80;;;;;;5026299;28;43040;-79
2023/09/03 05:38:42;;;;;;;;;;;24.70;71.20;;;;;;5027092;28;42792;-81
2023/09/03 05:41:09;;;;;;;;;;;24.60;71.60;;;;;;5021348;28;42969;-81
2023/09/03 05:43:35;;;;;;;;;;;24.50;71.60;;;;;;5035030;28;44739;-80
2023/09/03 05:46:00;;;;;;;;;;;24.80;71.90;;;;;;5022982;28;42965;-79
2023/09/03 05:48:26;;;;;;;;;;;24.60;71.60;;;;;;5024608;28;43520;-80
2023/09/03 05:50:59;;;;;;;;;;;24.70;71.40;;;;;;5025046;28;43046;-82
2023/09/03 05:53:24;;;;;;;;;;;24.60;69.60;;;;;;5022502;28;43007;-79
2023/09/03 05:55:50;;;;;;;;;;;24.70;71.80;;;;;;5025644;28;43126;-81
2023/09/03 05:58:16;;;;;;;;;;;24.90;71.20;;;;;;5025222;28;44117;-82
2023/09/03 06:00:42;;;;;;;;;;;24.80;71.80;;;;;;5024560;28;42889;-82
2023/09/03 06:03:08;;;;;;;;;;;24.90;71.30;;;;;;5025139;28;43050;-77
2023/09/03 06:05:33;;;;;;;;;;;25.00;70.80;;;;;;5026312;28;42990;-84
2023/09/03 06:08:00;;;;;;;;;;;24.90;70.60;;;;;;5025884;28;43801;-80
2023/09/03 06:10:25;;;;;;;;;;;24.90;70.30;;;;;;5020767;28;43187;-82
2023/09/03 06:12:51;;;;;;;;;;;25.00;70.30;;;;;;5022213;28;43329;-79
2023/09/03 06:15:16;;;;;;;;;;;25.10;70.40;;;;;;5025844;28;43047;-85
2023/09/03 06:17:42;;;;;;;;;;;25.10;70.40;;;;;;5024897;28;42973;-80
2023/09/03 06:20:10;;;;;;;;;;;25.20;70.50;;;;;;5026228;28;43195;-78
2023/09/03 06:22:36;;;;;;;;;;;25.20;69.70;;;;;;5023729;28;43476;-80
2023/09/03 06:25:01;;;;;;;;;;;25.00;70.00;;;;;;5026334;28;42911;-78
2023/09/03 06:27:26;;;;;;;;;;;25.00;69.80;;;;;;5024954;28;42876;-79
2023/09/03 06:29:52;;;;;;;;;;;25.00;69.70;;;;;;5026380;28;42904;-78
2023/09/03 06:32:18;;;;;;;;;;;25.10;69.80;;;;;;5026258;28;43697;-78
2023/09/03 06:34:44;;;;;;;;;;;25.20;69.80;;;;;;5016671;28;43210;-79
2023/09/03 06:37:10;;;;;;;;;;;25.30;70.20;;;;;;5023947;28;42980;-79
2023/09/03 06:39:35;;;;;;;;;;;25.20;69.40;;;;;;5023662;28;42966;-83
2023/09/03 06:42:01;;;;;;;;;;;25.30;69.90;;;;;;5024871;28;42907;-83
2023/09/03 06:44:26;;;;;;;;;;;25.30;69.80;;;;;;5024608;28;42954;-83
2023/09/03 06:46:52;;;;;;;;;;;25.20;69.70;;;;;;5024381;28;42904;-83
2023/09/03 06:49:17;;;;;;;;;;;25.20;69.60;;;;;;5024007;28;43167;-82
2023/09/03 06:51:43;;;;;;;;;;;25.60;70.00;;;;;;5025715;28;43407;-80
2023/09/03 06:54:08;;;;;;;;;;;25.20;69.70;;;;;;5026351;28;42823;-83
2023/09/03 06:56:34;;;;;;;;;;;25.60;70.20;;;;;;5025499;28;43725;-84
2023/09/03 06:58:59;;;;;;;;;;;25.40;69.40;;;;;;5026063;28;42931;-83
2023/09/03 07:01:25;;;;;;;;;;;25.40;70.10;;;;;;5026298;28;43487;-78
2023/09/03 07:03:50;;;;;;;;;;;25.40;70.00;;;;;;5026828;28;42895;-84
2023/09/03 07:06:16;;;;;;;;;;;25.40;69.90;;;;;;5026261;28;42909;-79
2023/09/03 07:08:41;;;;;;;;;;;25.20;69.80;;;;;;5025806;28;42860;-78
2023/09/03 07:11:07;;;;;;;;;;;25.40;70.60;;;;;;5025735;28;44054;-83
2023/09/03 07:13:32;;;;;;;;;;;25.30;70.00;;;;;;5026019;28;42888;-79
2023/09/03 07:16:02;;;;;;;;;;;25.60;70.20;;;;;;5026028;28;43448;-79
2023/09/03 07:18:28;;;;;;;;;;;25.40;70.20;;;;;;5025636;28;42733;-83
2023/09/03 07:21:01;;;;;;;;;;;25.50;69.70;;;;;;5025523;28;42977;-83
2023/09/03 07:23:27;;;;;;;;;;;25.40;67.90;;;;;;5025170;28;42856;-81
2023/09/03 07:25:52;;;;;;;;;;;25.70;70.40;;;;;;5025972;28;43508;-83
2023/09/03 07:28:18;;;;;;;;;;;25.40;69.70;;;;;;5025686;28;42803;-79
2023/09/03 07:30:43;;;;;;;;;;;25.30;70.20;;;;;;5026338;28;42818;-78
2023/09/03 07:33:09;;;;;;;;;;;25.60;70.90;;;;;;5026004;28;42960;-80
2023/09/03 07:35:34;;;;;;;;;;;25.60;70.80;;;;;;5026190;28;43725;-83
2023/09/03 07:38:00;;;;;;;;;;;25.50;70.60;;;;;;5025943;28;42993;-83
2023/09/03 07:40:26;;;;;;;;;;;25.40;70.80;;;;;;5025556;28;42961;-83
2023/09/03 07:42:51;;;;;;;;;;;25.40;71.10;;;;;;5025766;28;42973;-83
2023/09/03 07:45:17;;;;;;;;;;;25.30;70.70;;;;;;5025761;28;42747;-78
2023/09/03 07:47:42;;;;;;;;;;;25.40;70.80;;;;;;5024920;28;43375;-84
2023/09/03 07:50:08;;;;;;;;;;;25.50;70.80;;;;;;5025326;28;42731;-79
2023/09/03 07:52:34;;;;;;;;;;;25.40;70.40;;;;;;5025620;28;43038;-83
2023/09/03 07:54:59;;;;;;;;;;;25.40;71.00;;;;;;5025151;28;43133;-83
2023/09/03 07:57:27;;;;;;;;;;;25.60;71.40;;;;;;5025749;28;42997;-78
2023/09/03 07:59:52;;;;;;;;;;;25.50;72.00;;;;;;5025542;28;42900;-80
2023/09/03 08:02:18;;;;;;;;;;;25.50;71.90;;;;;;5025636;28;42929;-78
2023/09/03 08:04:43;;;;;;;;;;;25.40;72.10;;;;;;5025446;28;42798;-79
2023/09/03 08:07:09;;;;;;;;;;;25.50;72.20;;;;;;5025495;28;42839;-80
2023/09/03 08:09:34;;;;;;;;;;;25.40;71.90;;;;;;5025083;28;42915;-79
2023/09/03 08:12:00;;;;;;;;;;;25.40;71.80;;;;;;5025169;28;42969;-83
2023/09/03 08:14:25;;;;;;;;;;;25.40;71.70;;;;;;5024802;28;42879;-84
2023/09/03 08:16:51;;;;;;;;;;;25.40;71.80;;;;;;5024786;28;42926;-83
2023/09/03 08:19:16;;;;;;;;;;;25.40;71.80;;;;;;5024473;28;43664;-84
2023/09/03 08:21:42;;;;;;;;;;;25.60;72.40;;;;;;5025545;28;42756;-84
2023/09/03 08:24:09;;;;;;;;;;;25.60;71.90;;;;;;5025494;28;42881;-79
2023/09/03 08:26:35;;;;;;;;;;;25.60;71.90;;;;;;5025027;28;42946;-79
2023/09/03 08:29:00;;;;;;;;;;;25.50;71.30;;;;;;5024929;28;43390;-78
2023/09/03 08:31:26;;;;;;;;;;;25.60;71.80;;;;;;5025433;28;42946;-82
2023/09/03 08:33:53;;;;;;;;;;;25.70;72.10;;;;;;5024981;28;42934;-79
2023/09/03 08:36:20;;;;;;;;;;;25.60;71.90;;;;;;5025048;28;42831;-79
2023/09/03 08:38:45;;;;;;;;;;;25.70;72.00;;;;;;5024603;28;43578;-78
2023/09/03 08:41:11;;;;;;;;;;;25.80;72.00;;;;;;5024512;28;42791;-83
2023/09/03 08:43:38;;;;;;;;;;;25.60;71.60;;;;;;5024401;28;44116;-80
2023/09/03 08:46:08;;;;;;;;;;;25.30;72.00;;;;;;5024170;28;42954;-83
2023/09/03 08:48:34;;;;;;;;;;;25.70;72.20;;;;;;5024419;28;42916;-82
2023/09/03 08:51:00;;;;;;;;;;;25.60;72.20;;;;;;5024424;28;43028;-81
2023/09/03 08:53:26;;;;;;;;;;;25.60;72.20;;;;;;5024675;28;43679;-82
2023/09/03 08:55:52;;;;;;;;;;;25.60;72.00;;;;;;5024774;28;43072;-82
2023/09/03 08:58:18;;;;;;;;;;;25.70;72.00;;;;;;5026307;28;42879;-82
2023/09/03 09:00:43;;;;;;;;;;;25.60;71.60;;;;;;5028216;28;42983;-84
2023/09/03 09:03:11;;;;;;;;;;;25.80;71.80;;;;;;5027880;28;42929;-84
2023/09/03 09:05:37;;;;;;;;;;;25.70;71.60;;;;;;5028280;28;43001;-83
2023/09/03 09:08:04;;;;;;;;;;;25.60;71.60;;;;;;5028063;28;43524;-82
2023/09/03 09:10:32;;;;;;;;;;;25.70;71.40;;;;;;5027298;28;42961;-82
2023/09/03 09:13:03;;;;;;;;;;;25.80;71.80;;;;;;5028207;28;43755;-79
2023/09/03 09:15:28;;;;;;;;;;;25.80;69.40;;;;;;5028266;28;42759;-81
2023/09/03 09:17:54;;;;;;;;;;;25.70;71.80;;;;;;5026371;28;44000;-79
2023/09/03 09:20:19;;;;;;;;;;;25.80;71.70;;;;;;5027574;28;42868;-81
2023/09/03 09:22:46;;;;;;;;;;;25.70;72.00;;;;;;5027062;28;43716;-82
2023/09/03 09:25:18;;;;;;;;;;;25.80;72.00;;;;;;5026723;28;42975;-82
2023/09/03 09:27:44;;;;;;;;;;;25.80;69.60;;;;;;5027811;28;42859;-80
2023/09/03 09:30:11;;;;;;;;;;;25.60;72.40;;;;;;5028312;28;42874;-80
2023/09/03 09:32:36;;;;;;;;;;;25.80;71.50;;;;;;5027638;28;44457;-84
2023/09/03 09:35:02;;;;;;;;;;;25.90;71.80;;;;;;5027644;28;42773;-81
2023/09/03 09:37:36;;;;;;;;;;;25.70;71.80;;;;;;5027555;28;43380;-83
2023/09/03 09:40:02;;;;;;;;;;;25.70;71.90;;;;;;5026435;28;42787;-84
2023/09/03 09:42:27;;;;;;;;;;;25.80;71.80;;;;;;5027640;28;43423;-84
2023/09/03 09:44:53;;;;;;;;;;;25.80;71.80;;;;;;5027909;28;43234;-80
2023/09/03 09:47:19;;;;;;;;;;;25.70;71.60;;;;;;5026745;28;43520;-80
2023/09/03 09:49:47;;;;;;;;;;;25.60;71.40;;;;;;5026890;28;42993;-80
2023/09/03 09:52:16;;;;;;;;;;;25.80;70.40;;;;;;5027173;28;44400;-82
2023/09/03 09:54:42;;;;;;;;;;;25.80;69.00;;;;;;5027867;28;43033;-81
2023/09/03 09:57:09;;;;;;;;;;;25.80;71.40;;;;;;5027264;28;42917;-82
2023/09/03 09:59:34;;;;;;;;;;;25.90;71.30;;;;;;5027645;28;43058;-81
2023/09/03 10:02:10;;;;;;;;;;;25.80;71.20;;;;;;5027234;28;43437;-79
2023/09/03 10:04:38;;;;;;;;;;;25.80;71.20;;;;;;5027359;28;42855;-81
2023/09/03 10:07:04;;;;;;;;;;;25.90;71.20;;;;;;5027137;28;44293;-82
2023/09/03 10:09:30;;;;;;;;;;;25.90;71.10;;;;;;5026311;28;42697;-83
2023/09/03 10:11:57;;;;;;;;;;;25.80;70.90;;;;;;5026798;28;43414;-84
2023/09/03 10:14:22;;;;;;;;;;;25.70;70.70;;;;;;5027570;28;42829;-79
2023/09/03 10:16:49;;;;;;;;;;;25.90;70.60;;;;;;5026322;28;43516;-80
2023/09/03 10:19:17;;;;;;;;;;;25.80;70.40;;;;;;5026119;28;42831;-80
2023/09/03 10:21:42;;;;;;;;;;;25.80;70.30;;;;;;5027455;28;43368;-80
2023/09/03 10:24:09;;;;;;;;;;;25.90;70.40;;;;;;5027274;28;42941;-82
2023/09/03 10:26:43;;;;;;;;;;;25.80;70.30;;;;;;5026716;28;43270;-83
2023/09/03 10:29:10;;;;;;;;;;;25.90;70.30;;;;;;5026794;28;42834;-80
2023/09/03 10:31:37;;;;;;;;;;;25.90;70.40;;;;;;5026423;28;42906;-79
2023/09/03 10:34:07;;;;;;;;;;;25.80;70.20;;;;;;5026181;28;42776;-83
2023/09/03 10:36:33;;;;;;;;;;;25.80;70.30;;;;;;5026756;28;43918;-82
2023/09/03 10:39:07;;;;;;;;;;;25.80;70.30;;;;;;5026972;28;43073;-82
2023/09/03 10:41:32;;;;;;;;;;;25.90;70.30;;;;;;5026512;28;43801;-81
2023/09/03 10:44:13;;;;;;;;;;;25.90;70.10;;;;;;5026582;28;42996;-78
2023/09/03 10:46:58;;;;;;;;;;;26.00;70.10;;;;;;5024946;28;45055;-80
2023/09/03 10:49:23;;;;;;;;;;;25.80;70.00;;;;;;5026588;28;43007;-81
2023/09/03 10:51:49;;;;;;;;;;;25.90;70.20;;;;;;5025162;28;43508;-83
2023/09/03 10:54:18;;;;;;;;;;;25.90;70.20;;;;;;5016908;28;42962;-84
2023/09/03 10:57:02;;;;;;;;;;;25.90;68.10;;;;;;5025595;28;42874;-82
2023/09/03 10:59:48;;;;;;;;;;;26.00;68.10;;;;;;5025697;28;42886;-79
2023/09/03 11:02:24;;;;;;;;;;;25.90;70.60;;;;;;5025302;28;42952;-79
2023/09/03 11:05:09;;;;;;;;;;;25.80;67.90;;;;;;5024939;28;43085;-82
2023/09/03 11:07:34;;;;;;;;;;;26.00;67.80;;;;;;5024151;28;43085;-79
2023/09/03 11:10:18;;;;;;;;;;;25.80;70.10;;;;;;5024927;28;42883;-78
2023/09/03 11:12:44;;;;;;;;;;;26.00;67.80;;;;;;5025702;28;42920;-81
2023/09/03 11:15:10;;;;;;;;;;;25.80;70.10;;;;;;5025846;28;42868;-82
2023/09/03 11:17:36;;;;;;;;;;;25.80;69.50;;;;;;5025358;28;43752;-84
2023/09/03 11:20:01;;;;;;;;;;;25.80;69.80;;;;;;5024759;28;43033;-82
2023/09/03 11:22:28;;;;;;;;;;;25.90;69.70;;;;;;5024442;28;42969;-79
2023/09/03 11:24:54;;;;;;;;;;;25.90;69.30;;;;;;5024969;28;42945;-79
2023/09/03 11:27:19;;;;;;;;;;;26.00;69.80;;;;;;5025495;28;43442;-82
2023/09/03 11:29:45;;;;;;;;;;;26.00;69.80;;;;;;5024846;28;43098;-79
2023/09/03 11:32:10;;;;;;;;;;;26.00;70.30;;;;;;5024418;28;43053;-81
2023/09/03 11:34:36;;;;;;;;;;;26.00;69.00;;;;;;5024488;28;43150;-78
2023/09/03 11:37:02;;;;;;;;;;;26.10;69.90;;;;;;5024942;28;43542;-83
2023/09/03 11:39:28;;;;;;;;;;;26.10;69.70;;;;;;5023664;28;43108;-82
2023/09/03 11:41:53;;;;;;;;;;;25.60;69.50;;;;;;5024553;28;43649;-81
2023/09/03 11:44:20;;;;;;;;;;;25.90;70.00;;;;;;5024441;28;42768;-79
2023/09/03 11:46:58;;;;;;;;;;;26.00;69.90;;;;;;5025183;28;42967;-79
2023/09/03 11:49:24;;;;;;;;;;;25.80;67.50;;;;;;5025145;28;42777;-78
2023/09/03 11:51:49;;;;;;;;;;;26.10;70.50;;;;;;5024182;28;43632;-81
2023/09/03 11:54:21;;;;;;;;;;;26.10;70.00;;;;;;5023483;28;43136;-78
2023/09/03 11:56:47;;;;;;;;;;;26.00;67.30;;;;;;5025093;28;42838;-78
2023/09/03 11:59:12;;;;;;;;;;;26.20;70.10;;;;;;5025154;28;42913;-84
2023/09/03 12:01:38;;;;;;;;;;;26.10;70.40;;;;;;5022938;28;43029;-80
2023/09/03 12:04:04;;;;;;;;;;;26.10;70.20;;;;;;5024054;28;43005;-79
2023/09/03 12:06:34;;;;;;;;;;;26.00;69.70;;;;;;5024395;28;42904;-80
2023/09/03 12:08:59;;;;;;;;;;;26.20;70.20;;;;;;5025152;28;43046;-79
2023/09/03 12:11:29;;;;;;;;;;;26.10;69.60;;;;;;5024663;28;42874;-80
2023/09/03 12:13:54;;;;;;;;;;;26.10;67.70;;;;;;5024713;28;43148;-80
2023/09/03 12:16:22;;;;;;;;;;;26.20;70.00;;;;;;5024456;28;42883;-83
2023/09/03 12:18:58;;;;;;;;;;;26.20;70.60;;;;;;5024180;28;42835;-84
2023/09/03 12:21:36;;;;;;;;;;;26.30;67.80;;;;;;5023124;28;44632;-79
2023/09/03 12:24:04;;;;;;;;;;;26.10;67.90;;;;;;5023067;28;42925;-84
2023/09/03 12:26:30;;;;;;;;;;;26.20;70.10;;;;;;5024651;28;43023;-82
2023/09/03 12:28:58;;;;;;;;;;;26.60;70.00;;;;;;5024703;28;43002;-79
2023/09/03 12:31:37;;;;;;;;;;;26.50;70.50;;;;;;5023777;28;43057;-84
2023/09/03 12:34:02;;;;;;;;;;;26.40;70.30;;;;;;5013613;28;42974;-83
2023/09/03 12:36:28;;;;;;;;;;;26.30;70.20;;;;;;5023038;28;43747;-82
2023/09/03 12:38:55;;;;;;;;;;;26.30;70.40;;;;;;5023638;28;42854;-82
2023/09/03 12:41:32;;;;;;;;;;;26.10;70.80;;;;;;5024176;28;43850;-81
2023/09/03 12:44:06;;;;;;;;;;;26.30;70.60;;;;;;5023874;28;42862;-81
2023/09/03 12:46:33;;;;;;;;;;;26.30;67.70;;;;;;5024327;28;43391;-80
2023/09/03 12:48:58;;;;;;;;;;;26.30;70.40;;;;;;5023046;28;43084;-79
2023/09/03 12:51:24;;;;;;;;;;;26.20;70.60;;;;;;5023447;28;43731;-83
2023/09/03 12:53:49;;;;;;;;;;;25.90;70.50;;;;;;5022684;28;42919;-79
2023/09/03 12:56:15;;;;;;;;;;;26.20;70.80;;;;;;5023669;28;42879;-83
2023/09/03 12:58:42;;;;;;;;;;;26.10;70.50;;;;;;5023942;28;42943;-81
2023/09/03 13:01:08;;;;;;;;;;;26.20;70.70;;;;;;5024529;28;43611;-79
2023/09/03 13:03:34;;;;;;;;;;;26.10;70.90;;;;;;5023068;28;42937;-79
2023/09/03 13:05:59;;;;;;;;;;;26.20;71.20;;;;;;5023862;28;43075;-79
2023/09/03 13:08:25;;;;;;;;;;;26.30;71.30;;;;;;5022771;28;42993;-80
2023/09/03 13:10:51;;;;;;;;;;;26.20;71.40;;;;;;5022037;28;44636;-79
2023/09/03 13:13:17;;;;;;;;;;;26.20;71.30;;;;;;5020916;28;43012;-80
2023/09/03 13:15:43;;;;;;;;;;;26.30;71.20;;;;;;5022646;28;43533;-80
2023/09/03 13:18:08;;;;;;;;;;;26.10;71.10;;;;;;5020666;28;43295;-80
2023/09/03 13:20:34;;;;;;;;;;;26.00;71.40;;;;;;5023512;28;42874;-82
2023/09/03 13:23:00;;;;;;;;;;;26.20;71.60;;;;;;5022930;28;42911;-78
2023/09/03 13:25:26;;;;;;;;;;;26.20;71.80;;;;;;5021339;28;45028;-78
2023/09/03 13:27:51;;;;;;;;;;;26.10;71.40;;;;;;5022021;28;43044;-79
2023/09/03 13:30:17;;;;;;;;;;;26.10;71.50;;;;;;5022625;28;42947;-81
2023/09/03 13:32:42;;;;;;;;;;;26.10;71.40;;;;;;5022525;28;42884;-80
2023/09/03 13:35:08;;;;;;;;;;;26.20;71.40;;;;;;5023303;28;42966;-80
2023/09/03 13:37:35;;;;;;;;;;;26.20;71.60;;;;;;5023986;28;42891;-80
2023/09/03 13:40:00;;;;;;;;;;;26.40;71.90;;;;;;5022898;28;43761;-80
2023/09/03 13:42:26;;;;;;;;;;;26.20;71.50;;;;;;5022547;28;43017;-81
2023/09/03 13:44:54;;;;;;;;;;;26.20;71.70;;;;;;5023234;28;43427;-81
2023/09/03 13:47:20;;;;;;;;;;;26.50;72.40;;;;;;5026335;28;43022;-79
2023/09/03 13:49:45;;;;;;;;;;;27.60;73.30;;;;;;5037203;28;43333;-79
2023/09/03 13:52:11;;;;;;;;;;;26.20;72.20;;;;;;5038204;28;42977;-79
2023/09/03 13:54:36;;;;;;;;;;;26.40;72.20;;;;;;5025761;28;43649;-79
2023/09/03 13:57:02;;;;;;;;;;;26.30;72.20;;;;;;5027673;28;42973;-80
2023/09/03 13:59:27;;;;;;;;;;;26.20;72.00;;;;;;5026170;28;42968;-80
2023/09/03 14:01:53;;;;;;;;;;;26.30;72.20;;;;;;5026158;28;42891;-79
2023/09/03 14:04:18;;;;;;;;;;;26.20;72.10;;;;;;5025820;28;42924;-81
2023/09/03 14:06:44;;;;;;;;;;;26.50;72.50;;;;;;5026530;28;42918;-83
2023/09/03 14:09:11;;;;;;;;;;;26.30;72.20;;;;;;5026033;28;43655;-81
2023/09/03 14:11:38;;;;;;;;;;;26.50;72.40;;;;;;5026816;28;42926;-81
2023/09/03 14:14:06;;;;;;;;;;;26.20;71.90;;;;;;5026362;28;43426;-82